Terminal Aerodrome Forecast
Issued by NWS

Home | Current Version | Previous Version | Text Only | Print | Product List | Glossary On
Versions: 1 2 3 4 5 6 7 8 9 10 11 12 13 14 15
000
FTUS43 KOAX 242325
TAFBFF
TAF
KBFF 242325Z 2500/2524 01013G23KT P6SM VCTS SCT060CB OVC100
      TEMPO 2500/2502 VRB25G35KT 5SM -TSRA BKN050CB
     FM250200 35008KT P6SM FEW060 BKN150
     FM251900 06010KT P6SM VCTS SCT060CB BKN100=

USA.gov is the U.S. government's official web portal to all federal, state and local government web resources and services.